sensor_id;sensor_type;location;lat;lon;timestamp;P1;durP1;ratioP1;P2;durP2;ratioP2
30080;SDS011;16902;50.816;12.828;2022-09-09T00:22:32;5.78;;;5.03;;
30080;SDS011;16902;50.816;12.828;2022-09-09T00:27:36;5.22;;;4.82;;
30080;SDS011;16902;50.816;12.828;2022-09-09T00:32:49;7.70;;;6.13;;
30080;SDS011;16902;50.816;12.828;2022-09-09T00:37:53;5.45;;;5.05;;
30080;SDS011;16902;50.816;12.828;2022-09-09T00:43:06;5.63;;;5.13;;
30080;SDS011;16902;50.816;12.828;2022-09-09T00:48:26;5.43;;;5.05;;
30080;SDS011;16902;50.816;12.828;2022-09-09T00:53:58;5.63;;;5.13;;
30080;SDS011;16902;50.816;12.828;2022-09-09T01:04:47;5.47;;;5.07;;
30080;SDS011;16902;50.816;12.828;2022-09-09T01:15:12;5.60;;;5.10;;
30080;SDS011;16902;50.816;12.828;2022-09-09T01:20:23;5.95;;;5.45;;
30080;SDS011;16902;50.816;12.828;2022-09-09T01:30:54;5.80;;;5.40;;
30080;SDS011;16902;50.816;12.828;2022-09-09T01:41:13;5.70;;;5.20;;
30080;SDS011;16902;50.816;12.828;2022-09-09T01:46:33;6.30;;;5.68;;
30080;SDS011;16902;50.816;12.828;2022-09-09T01:51:36;5.63;;;5.20;;
30080;SDS011;16902;50.816;12.828;2022-09-09T01:56:54;6.68;;;4.95;;
30080;SDS011;16902;50.816;12.828;2022-09-09T02:07:47;5.88;;;5.47;;
30080;SDS011;16902;50.816;12.828;2022-09-09T02:13:03;5.30;;;4.97;;
30080;SDS011;16902;50.816;12.828;2022-09-09T02:18:11;5.28;;;4.88;;
30080;SDS011;16902;50.816;12.828;2022-09-09T02:23:16;5.28;;;4.78;;
30080;SDS011;16902;50.816;12.828;2022-09-09T02:28:21;5.30;;;4.80;;
30080;SDS011;16902;50.816;12.828;2022-09-09T02:33:27;4.72;;;4.32;;
30080;SDS011;16902;50.816;12.828;2022-09-09T02:38:33;5.43;;;4.80;;
30080;SDS011;16902;50.816;12.828;2022-09-09T02:43:42;5.38;;;4.97;;
30080;SDS011;16902;50.816;12.828;2022-09-09T02:53:58;6.05;;;5.07;;
30080;SDS011;16902;50.816;12.828;2022-09-09T02:59:11;5.38;;;4.82;;
30080;SDS011;16902;50.816;12.828;2022-09-09T03:04:13;5.47;;;4.43;;
30080;SDS011;16902;50.816;12.828;2022-09-09T03:09:15;5.75;;;5.25;;
30080;SDS011;16902;50.816;12.828;2022-09-09T03:14:17;5.70;;;5.20;;
30080;SDS011;16902;50.816;12.828;2022-09-09T03:19:23;6.60;;;6.07;;
30080;SDS011;16902;50.816;12.828;2022-09-09T03:24:25;5.03;;;4.53;;
30080;SDS011;16902;50.816;12.828;2022-09-09T03:29:28;6.57;;;5.00;;
30080;SDS011;16902;50.816;12.828;2022-09-09T03:34:32;5.32;;;4.82;;
30080;SDS011;16902;50.816;12.828;2022-09-09T03:39:33;5.22;;;4.72;;
30080;SDS011;16902;50.816;12.828;2022-09-09T03:44:35;6.90;;;4.82;;
30080;SDS011;16902;50.816;12.828;2022-09-09T03:49:36;5.70;;;5.30;;
30080;SDS011;16902;50.816;12.828;2022-09-09T03:54:38;4.63;;;4.22;;
30080;SDS011;16902;50.816;12.828;2022-09-09T03:59:40;5.55;;;5.15;;
30080;SDS011;16902;50.816;12.828;2022-09-09T04:04:43;5.00;;;4.50;;
30080;SDS011;16902;50.816;12.828;2022-09-09T04:09:44;4.70;;;4.30;;
30080;SDS011;16902;50.816;12.828;2022-09-09T04:14:48;5.88;;;5.10;;
30080;SDS011;16902;50.816;12.828;2022-09-09T04:19:50;5.40;;;5.00;;
30080;SDS011;16902;50.816;12.828;2022-09-09T04:24:51;6.72;;;4.85;;
30080;SDS011;16902;50.816;12.828;2022-09-09T04:29:54;7.43;;;5.90;;
30080;SDS011;16902;50.816;12.828;2022-09-09T04:35:00;6.18;;;5.28;;
30080;SDS011;16902;50.816;12.828;2022-09-09T04:40:02;5.60;;;5.10;;
30080;SDS011;16902;50.816;12.828;2022-09-09T04:45:06;6.10;;;4.93;;
30080;SDS011;16902;50.816;12.828;2022-09-09T04:50:08;5.95;;;5.18;;
30080;SDS011;16902;50.816;12.828;2022-09-09T04:55:10;6.15;;;5.55;;
30080;SDS011;16902;50.816;12.828;2022-09-09T05:00:17;7.55;;;4.75;;
30080;SDS011;16902;50.816;12.828;2022-09-09T05:05:20;6.18;;;5.57;;
30080;SDS011;16902;50.816;12.828;2022-09-09T05:10:23;6.43;;;5.93;;
30080;SDS011;16902;50.816;12.828;2022-09-09T05:15:25;7.07;;;6.43;;
30080;SDS011;16902;50.816;12.828;2022-09-09T05:20:27;6.70;;;6.10;;
30080;SDS011;16902;50.816;12.828;2022-09-09T05:25:29;6.93;;;6.32;;
30080;SDS011;16902;50.816;12.828;2022-09-09T05:30:31;6.78;;;6.28;;
30080;SDS011;16902;50.816;12.828;2022-09-09T05:35:37;6.68;;;6.07;;
30080;SDS011;16902;50.816;12.828;2022-09-09T05:40:39;7.38;;;6.75;;
30080;SDS011;16902;50.816;12.828;2022-09-09T05:45:58;6.75;;;6.10;;
30080;SDS011;16902;50.816;12.828;2022-09-09T05:51:04;7.38;;;6.60;;
30080;SDS011;16902;50.816;12.828;2022-09-09T05:56:12;7.90;;;7.10;;
30080;SDS011;16902;50.816;12.828;2022-09-09T06:01:26;10.23;;;7.65;;
30080;SDS011;16902;50.816;12.828;2022-09-09T06:06:35;9.35;;;7.22;;
30080;SDS011;16902;50.816;12.828;2022-09-09T06:11:43;8.40;;;7.50;;
30080;SDS011;16902;50.816;12.828;2022-09-09T06:16:46;11.05;;;9.95;;
30080;SDS011;16902;50.816;12.828;2022-09-09T06:21:52;10.82;;;9.63;;
30080;SDS011;16902;50.816;12.828;2022-09-09T06:26:54;9.57;;;8.63;;
30080;SDS011;16902;50.816;12.828;2022-09-09T06:32:01;8.05;;;7.38;;
30080;SDS011;16902;50.816;12.828;2022-09-09T06:37:04;10.00;;;7.43;;
30080;SDS011;16902;50.816;12.828;2022-09-09T06:42:12;14.05;;;7.90;;
30080;SDS011;16902;50.816;12.828;2022-09-09T06:47:23;9.65;;;6.60;;
30080;SDS011;16902;50.816;12.828;2022-09-09T06:52:26;7.70;;;6.22;;
30080;SDS011;16902;50.816;12.828;2022-09-09T06:57:29;8.75;;;7.03;;
30080;SDS011;16902;50.816;12.828;2022-09-09T07:02:39;9.48;;;7.05;;
30080;SDS011;16902;50.816;12.828;2022-09-09T07:07:43;7.40;;;6.57;;
30080;SDS011;16902;50.816;12.828;2022-09-09T07:12:50;7.57;;;6.85;;
30080;SDS011;16902;50.816;12.828;2022-09-09T07:17:54;8.88;;;6.80;;
30080;SDS011;16902;50.816;12.828;2022-09-09T07:22:56;8.45;;;6.63;;
30080;SDS011;16902;50.816;12.828;2022-09-09T07:27:59;7.50;;;6.70;;
30080;SDS011;16902;50.816;12.828;2022-09-09T07:33:00;8.38;;;7.60;;
30080;SDS011;16902;50.816;12.828;2022-09-09T07:38:04;8.20;;;7.38;;
30080;SDS011;16902;50.816;12.828;2022-09-09T07:43:08;8.68;;;7.88;;
30080;SDS011;16902;50.816;12.828;2022-09-09T07:48:13;7.95;;;7.35;;
30080;SDS011;16902;50.816;12.828;2022-09-09T07:53:14;8.05;;;7.35;;
30080;SDS011;16902;50.816;12.828;2022-09-09T07:58:16;7.10;;;6.70;;
30080;SDS011;16902;50.816;12.828;2022-09-09T08:03:17;7.90;;;7.40;;
30080;SDS011;16902;50.816;12.828;2022-09-09T08:08:19;8.32;;;7.65;;
30080;SDS011;16902;50.816;12.828;2022-09-09T08:13:21;8.07;;;7.68;;
30080;SDS011;16902;50.816;12.828;2022-09-09T08:18:22;8.57;;;8.13;;
30080;SDS011;16902;50.816;12.828;2022-09-09T08:23:24;9.20;;;8.40;;
30080;SDS011;16902;50.816;12.828;2022-09-09T08:28:27;9.75;;;8.75;;
30080;SDS011;16902;50.816;12.828;2022-09-09T08:33:28;9.32;;;8.82;;
30080;SDS011;16902;50.816;12.828;2022-09-09T08:38:30;9.77;;;9.18;;
30080;SDS011;16902;50.816;12.828;2022-09-09T08:43:32;9.30;;;8.80;;
30080;SDS011;16902;50.816;12.828;2022-09-09T08:48:50;9.23;;;8.65;;
30080;SDS011;16902;50.816;12.828;2022-09-09T08:54:02;9.45;;;8.80;;
30080;SDS011;16902;50.816;12.828;2022-09-09T08:59:07;9.90;;;9.20;;
30080;SDS011;16902;50.816;12.828;2022-09-09T09:15:00;9.85;;;9.27;;
30080;SDS011;16902;50.816;12.828;2022-09-09T09:20:02;10.68;;;9.98;;
30080;SDS011;16902;50.816;12.828;2022-09-09T09:25:11;10.23;;;9.73;;
30080;SDS011;16902;50.816;12.828;2022-09-09T09:30:23;9.80;;;9.30;;
30080;SDS011;16902;50.816;12.828;2022-09-09T09:35:36;10.48;;;9.65;;
30080;SDS011;16902;50.816;12.828;2022-09-09T09:40:48;10.93;;;10.25;;
30080;SDS011;16902;50.816;12.828;2022-09-09T09:46:00;10.40;;;9.90;;
30080;SDS011;16902;50.816;12.828;2022-09-09T09:51:19;11.05;;;10.45;;
30080;SDS011;16902;50.816;12.828;2022-09-09T09:56:27;11.45;;;10.77;;
30080;SDS011;16902;50.816;12.828;2022-09-09T10:01:32;10.98;;;10.38;;
30080;SDS011;16902;50.816;12.828;2022-09-09T10:06:38;11.32;;;10.63;;
30080;SDS011;16902;50.816;12.828;2022-09-09T10:22:27;11.70;;;11.00;;
30080;SDS011;16902;50.816;12.828;2022-09-09T10:33:03;10.48;;;9.98;;
30080;SDS011;16902;50.816;12.828;2022-09-09T10:38:15;10.85;;;10.35;;
30080;SDS011;16902;50.816;12.828;2022-09-09T10:43:22;10.82;;;10.32;;
30080;SDS011;16902;50.816;12.828;2022-09-09T10:59:14;11.07;;;10.57;;
30080;SDS011;16902;50.816;12.828;2022-09-09T11:04:22;10.80;;;10.20;;
30080;SDS011;16902;50.816;12.828;2022-09-09T11:09:31;10.75;;;10.25;;
30080;SDS011;16902;50.816;12.828;2022-09-09T11:14:49;11.25;;;10.65;;
30080;SDS011;16902;50.816;12.828;2022-09-09T11:19:57;11.68;;;11.07;;
30080;SDS011;16902;50.816;12.828;2022-09-09T11:25:00;11.82;;;11.13;;
30080;SDS011;16902;50.816;12.828;2022-09-09T11:30:15;11.23;;;10.52;;
30080;SDS011;16902;50.816;12.828;2022-09-09T11:41:32;11.35;;;10.88;;
30080;SDS011;16902;50.816;12.828;2022-09-09T11:46:36;11.30;;;10.70;;
30080;SDS011;16902;50.816;12.828;2022-09-09T11:51:40;12.68;;;11.98;;
30080;SDS011;16902;50.816;12.828;2022-09-09T11:56:44;12.30;;;11.70;;
30080;SDS011;16902;50.816;12.828;2022-09-09T12:01:54;11.80;;;11.20;;
30080;SDS011;16902;50.816;12.828;2022-09-09T12:07:05;11.95;;;11.40;;
30080;SDS011;16902;50.816;12.828;2022-09-09T12:12:32;12.05;;;11.35;;
30080;SDS011;16902;50.816;12.828;2022-09-09T12:17:42;11.70;;;11.10;;
30080;SDS011;16902;50.816;12.828;2022-09-09T12:33:11;11.40;;;10.80;;
30080;SDS011;16902;50.816;12.828;2022-09-09T12:38:21;11.82;;;11.13;;
30080;SDS011;16902;50.816;12.828;2022-09-09T12:43:35;11.57;;;11.00;;
30080;SDS011;16902;50.816;12.828;2022-09-09T12:48:40;11.73;;;11.02;;
30080;SDS011;16902;50.816;12.828;2022-09-09T12:53:43;11.77;;;11.27;;
30080;SDS011;16902;50.816;12.828;2022-09-09T12:58:47;12.18;;;11.15;;
30080;SDS011;16902;50.816;12.828;2022-09-09T13:03:52;11.30;;;10.60;;
30080;SDS011;16902;50.816;12.828;2022-09-09T13:08:55;11.55;;;10.85;;
30080;SDS011;16902;50.816;12.828;2022-09-09T13:14:00;12.02;;;11.38;;
30080;SDS011;16902;50.816;12.828;2022-09-09T13:19:06;11.90;;;11.30;;
30080;SDS011;16902;50.816;12.828;2022-09-09T13:29:34;12.32;;;11.80;;
30080;SDS011;16902;50.816;12.828;2022-09-09T13:34:38;11.50;;;11.00;;
30080;SDS011;16902;50.816;12.828;2022-09-09T13:39:40;10.73;;;10.30;;
30080;SDS011;16902;50.816;12.828;2022-09-09T13:44:42;11.15;;;10.73;;
30080;SDS011;16902;50.816;12.828;2022-09-09T13:49:43;11.98;;;11.27;;
30080;SDS011;16902;50.816;12.828;2022-09-09T13:54:50;11.18;;;10.70;;
30080;SDS011;16902;50.816;12.828;2022-09-09T13:59:53;11.52;;;11.02;;
30080;SDS011;16902;50.816;12.828;2022-09-09T14:05:06;11.02;;;10.48;;
30080;SDS011;16902;50.816;12.828;2022-09-09T14:10:08;11.13;;;10.55;;
30080;SDS011;16902;50.816;12.828;2022-09-09T14:15:11;11.52;;;11.02;;
30080;SDS011;16902;50.816;12.828;2022-09-09T14:20:13;10.98;;;10.48;;
30080;SDS011;16902;50.816;12.828;2022-09-09T14:25:16;12.40;;;11.80;;
30080;SDS011;16902;50.816;12.828;2022-09-09T14:30:18;12.43;;;11.90;;
30080;SDS011;16902;50.816;12.828;2022-09-09T14:35:19;12.50;;;12.00;;
30080;SDS011;16902;50.816;12.828;2022-09-09T14:40:21;12.63;;;12.02;;
30080;SDS011;16902;50.816;12.828;2022-09-09T14:45:23;12.43;;;11.93;;
30080;SDS011;16902;50.816;12.828;2022-09-09T14:50:26;12.90;;;12.30;;
30080;SDS011;16902;50.816;12.828;2022-09-09T14:55:27;12.15;;;11.60;;
30080;SDS011;16902;50.816;12.828;2022-09-09T15:00:30;12.15;;;11.65;;
30080;SDS011;16902;50.816;12.828;2022-09-09T15:05:32;12.02;;;11.45;;
30080;SDS011;16902;50.816;12.828;2022-09-09T15:10:33;12.45;;;11.95;;
30080;SDS011;16902;50.816;12.828;2022-09-09T15:15:35;11.68;;;11.13;;
30080;SDS011;16902;50.816;12.828;2022-09-09T15:20:36;12.00;;;11.50;;
30080;SDS011;16902;50.816;12.828;2022-09-09T15:25:50;11.88;;;11.27;;
30080;SDS011;16902;50.816;12.828;2022-09-09T15:30:56;12.13;;;11.55;;
30080;SDS011;16902;50.816;12.828;2022-09-09T15:35:59;11.60;;;11.10;;
30080;SDS011;16902;50.816;12.828;2022-09-09T15:41:00;12.45;;;11.85;;
30080;SDS011;16902;50.816;12.828;2022-09-09T15:46:09;11.75;;;11.15;;
30080;SDS011;16902;50.816;12.828;2022-09-09T15:51:29;12.30;;;11.70;;
30080;SDS011;16902;50.816;12.828;2022-09-09T15:56:43;11.63;;;11.02;;
30080;SDS011;16902;50.816;12.828;2022-09-09T16:01:46;12.10;;;11.60;;
30080;SDS011;16902;50.816;12.828;2022-09-09T16:06:48;11.32;;;10.80;;
30080;SDS011;16902;50.816;12.828;2022-09-09T16:11:51;11.15;;;10.52;;
30080;SDS011;16902;50.816;12.828;2022-09-09T16:16:54;10.63;;;10.02;;
30080;SDS011;16902;50.816;12.828;2022-09-09T16:21:56;11.10;;;10.50;;
30080;SDS011;16902;50.816;12.828;2022-09-09T16:27:00;11.43;;;10.82;;
30080;SDS011;16902;50.816;12.828;2022-09-09T16:32:02;10.35;;;9.80;;
30080;SDS011;16902;50.816;12.828;2022-09-09T16:37:04;10.45;;;9.95;;
30080;SDS011;16902;50.816;12.828;2022-09-09T16:42:06;10.68;;;9.98;;
30080;SDS011;16902;50.816;12.828;2022-09-09T16:47:08;9.65;;;9.15;;
30080;SDS011;16902;50.816;12.828;2022-09-09T16:52:10;9.50;;;9.00;;
30080;SDS011;16902;50.816;12.828;2022-09-09T16:57:12;9.45;;;8.90;;
30080;SDS011;16902;50.816;12.828;2022-09-09T17:02:14;10.35;;;9.85;;
30080;SDS011;16902;50.816;12.828;2022-09-09T17:07:15;10.25;;;9.85;;
30080;SDS011;16902;50.816;12.828;2022-09-09T17:12:17;10.13;;;9.65;;
30080;SDS011;16902;50.816;12.828;2022-09-09T17:17:19;10.15;;;9.55;;
30080;SDS011;16902;50.816;12.828;2022-09-09T17:22:32;9.73;;;9.32;;
30080;SDS011;16902;50.816;12.828;2022-09-09T17:27:34;9.93;;;9.52;;
30080;SDS011;16902;50.816;12.828;2022-09-09T17:32:36;10.13;;;9.50;;
30080;SDS011;16902;50.816;12.828;2022-09-09T17:37:37;8.50;;;8.10;;
30080;SDS011;16902;50.816;12.828;2022-09-09T17:42:39;8.80;;;8.40;;
30080;SDS011;16902;50.816;12.828;2022-09-09T17:47:42;8.52;;;8.23;;
30080;SDS011;16902;50.816;12.828;2022-09-09T17:52:44;8.70;;;8.30;;
30080;SDS011;16902;50.816;12.828;2022-09-09T17:57:46;8.45;;;8.07;;
30080;SDS011;16902;50.816;12.828;2022-09-09T18:02:48;8.35;;;8.05;;
30080;SDS011;16902;50.816;12.828;2022-09-09T18:07:50;8.82;;;8.40;;
30080;SDS011;16902;50.816;12.828;2022-09-09T18:12:52;8.60;;;8.30;;
30080;SDS011;16902;50.816;12.828;2022-09-09T18:17:53;8.93;;;8.52;;
30080;SDS011;16902;50.816;12.828;2022-09-09T18:22:55;9.27;;;8.88;;
30080;SDS011;16902;50.816;12.828;2022-09-09T18:27:57;9.48;;;8.88;;
30080;SDS011;16902;50.816;12.828;2022-09-09T18:32:59;8.80;;;8.40;;
30080;SDS011;16902;50.816;12.828;2022-09-09T18:38:00;9.20;;;8.80;;
30080;SDS011;16902;50.816;12.828;2022-09-09T18:43:02;8.70;;;8.30;;
30080;SDS011;16902;50.816;12.828;2022-09-09T18:48:04;8.65;;;8.20;;
30080;SDS011;16902;50.816;12.828;2022-09-09T18:53:06;8.60;;;8.20;;
30080;SDS011;16902;50.816;12.828;2022-09-09T18:58:08;8.52;;;8.13;;
30080;SDS011;16902;50.816;12.828;2022-09-09T19:03:09;8.55;;;8.05;;
30080;SDS011;16902;50.816;12.828;2022-09-09T19:08:11;6.88;;;6.47;;
30080;SDS011;16902;50.816;12.828;2022-09-09T19:13:13;9.38;;;8.68;;
30080;SDS011;16902;50.816;12.828;2022-09-09T19:18:15;8.48;;;7.97;;
30080;SDS011;16902;50.816;12.828;2022-09-09T19:23:17;10.25;;;9.57;;
30080;SDS011;16902;50.816;12.828;2022-09-09T19:28:19;10.38;;;9.57;;
30080;SDS011;16902;50.816;12.828;2022-09-09T19:33:21;11.50;;;10.63;;
30080;SDS011;16902;50.816;12.828;2022-09-09T19:38:23;11.60;;;10.80;;
30080;SDS011;16902;50.816;12.828;2022-09-09T19:43:25;10.98;;;10.07;;
30080;SDS011;16902;50.816;12.828;2022-09-09T19:48:31;10.15;;;9.45;;
30080;SDS011;16902;50.816;12.828;2022-09-09T19:53:36;8.90;;;8.30;;
30080;SDS011;16902;50.816;12.828;2022-09-09T19:58:40;9.23;;;8.48;;
30080;SDS011;16902;50.816;12.828;2022-09-09T20:03:42;10.20;;;9.50;;
30080;SDS011;16902;50.816;12.828;2022-09-09T20:08:46;8.07;;;7.30;;
30080;SDS011;16902;50.816;12.828;2022-09-09T20:13:48;7.10;;;6.60;;
30080;SDS011;16902;50.816;12.828;2022-09-09T20:18:52;7.28;;;6.88;;
30080;SDS011;16902;50.816;12.828;2022-09-09T20:23:58;6.80;;;6.40;;
30080;SDS011;16902;50.816;12.828;2022-09-09T20:29:01;6.63;;;6.28;;
30080;SDS011;16902;50.816;12.828;2022-09-09T20:34:12;5.57;;;5.30;;
30080;SDS011;16902;50.816;12.828;2022-09-09T20:39:16;6.22;;;5.93;;
30080;SDS011;16902;50.816;12.828;2022-09-09T20:44:23;5.60;;;5.30;;
30080;SDS011;16902;50.816;12.828;2022-09-09T20:49:25;5.35;;;4.97;;
30080;SDS011;16902;50.816;12.828;2022-09-09T20:54:27;5.78;;;5.38;;
30080;SDS011;16902;50.816;12.828;2022-09-09T20:59:32;5.60;;;5.20;;
30080;SDS011;16902;50.816;12.828;2022-09-09T21:04:35;5.97;;;5.57;;
30080;SDS011;16902;50.816;12.828;2022-09-09T21:09:38;5.63;;;5.28;;
30080;SDS011;16902;50.816;12.828;2022-09-09T21:14:41;5.55;;;5.25;;
30080;SDS011;16902;50.816;12.828;2022-09-09T21:19:43;5.53;;;5.32;;
30080;SDS011;16902;50.816;12.828;2022-09-09T21:24:45;5.75;;;5.38;;
30080;SDS011;16902;50.816;12.828;2022-09-09T21:29:47;5.80;;;5.40;;
30080;SDS011;16902;50.816;12.828;2022-09-09T21:34:50;5.57;;;5.22;;
30080;SDS011;16902;50.816;12.828;2022-09-09T21:39:52;5.82;;;5.30;;
30080;SDS011;16902;50.816;12.828;2022-09-09T21:44:54;6.28;;;5.72;;
30080;SDS011;16902;50.816;12.828;2022-09-09T21:49:56;5.38;;;5.07;;
30080;SDS011;16902;50.816;12.828;2022-09-09T21:54:57;5.82;;;5.45;;
30080;SDS011;16902;50.816;12.828;2022-09-09T21:59:59;5.18;;;4.88;;
30080;SDS011;16902;50.816;12.828;2022-09-09T22:05:01;5.22;;;4.82;;
30080;SDS011;16902;50.816;12.828;2022-09-09T22:10:03;5.13;;;4.65;;
30080;SDS011;16902;50.816;12.828;2022-09-09T22:15:05;5.18;;;4.78;;
30080;SDS011;16902;50.816;12.828;2022-09-09T22:20:10;5.20;;;4.90;;
30080;SDS011;16902;50.816;12.828;2022-09-09T22:25:12;6.80;;;6.40;;
30080;SDS011;16902;50.816;12.828;2022-09-09T22:30:14;6.55;;;6.05;;
30080;SDS011;16902;50.816;12.828;2022-09-09T22:35:16;5.00;;;4.68;;
30080;SDS011;16902;50.816;12.828;2022-09-09T22:40:18;5.55;;;5.18;;
30080;SDS011;16902;50.816;12.828;2022-09-09T22:45:20;5.22;;;4.93;;
30080;SDS011;16902;50.816;12.828;2022-09-09T22:50:22;4.85;;;4.35;;
30080;SDS011;16902;50.816;12.828;2022-09-09T22:55:23;5.05;;;4.65;;
30080;SDS011;16902;50.816;12.828;2022-09-09T23:00:26;5.00;;;4.70;;
30080;SDS011;16902;50.816;12.828;2022-09-09T23:05:27;4.65;;;4.25;;
30080;SDS011;16902;50.816;12.828;2022-09-09T23:10:29;6.03;;;4.05;;
30080;SDS011;16902;50.816;12.828;2022-09-09T23:15:33;4.65;;;4.35;;
30080;SDS011;16902;50.816;12.828;2022-09-09T23:20:37;7.47;;;6.88;;
30080;SDS011;16902;50.816;12.828;2022-09-09T23:25:39;5.78;;;5.32;;
30080;SDS011;16902;50.816;12.828;2022-09-09T23:30:41;5.55;;;5.13;;
30080;SDS011;16902;50.816;12.828;2022-09-09T23:35:42;5.78;;;5.30;;
30080;SDS011;16902;50.816;12.828;2022-09-09T23:40:44;7.00;;;6.32;;
30080;SDS011;16902;50.816;12.828;2022-09-09T23:45:47;7.15;;;6.53;;
30080;SDS011;16902;50.816;12.828;2022-09-09T23:50:50;7.95;;;7.32;;
30080;SDS011;16902;50.816;12.828;2022-09-09T23:55:52;8.68;;;7.95;;
